Terminal Aerodrome Forecast
Issued by NWS Louisville, KY

Home | Current Version | Previous Version | Text Only | Print | Product List | Glossary On
Versions: 1 2 3 4 5 6 7 8 9 10 11 12 13 14 15 16
000
FTUS43 KLMK 290500
TAFSDF
TAF
KSDF 290520Z 2906/3012 15008KT P6SM BKN150
     FM291300 19009G16KT P6SM BKN035
     FM291800 20012G19KT P6SM VCSH BKN025
     FM300000 20010KT P6SM VCSH BKN020=

USA.gov is the U.S. government's official web portal to all federal, state and local government web resources and services.